sensor_id;sensor_type;location;lat;lon;timestamp;pressure;altitude;pressure_sealevel;temperature;humidity
34742;BME280;20968;42.696;23.360;2023-04-21T00:01:45;94850.00;;;13.12;63.33
34742;BME280;20968;42.696;23.360;2023-04-21T00:04:13;94851.03;;;13.09;63.58
34742;BME280;20968;42.696;23.360;2023-04-21T00:06:40;94844.47;;;13.01;62.96
34742;BME280;20968;42.696;23.360;2023-04-21T00:09:09;94843.97;;;13.08;63.89
34742;BME280;20968;42.696;23.360;2023-04-21T00:11:35;94840.94;;;13.06;63.96
34742;BME280;20968;42.696;23.360;2023-04-21T00:14:01;94833.91;;;12.89;64.45
34742;BME280;20968;42.696;23.360;2023-04-21T00:16:26;94843.47;;;12.88;64.04
34742;BME280;20968;42.696;23.360;2023-04-21T00:18:52;94839.66;;;12.80;64.02
34742;BME280;20968;42.696;23.360;2023-04-21T00:21:18;94845.69;;;12.78;65.13
34742;BME280;20968;42.696;23.360;2023-04-21T00:23:44;94847.66;;;12.61;66.16
34742;BME280;20968;42.696;23.360;2023-04-21T00:26:11;94822.50;;;12.43;66.08
34742;BME280;20968;42.696;23.360;2023-04-21T00:28:37;94838.06;;;12.46;66.21
34742;BME280;20968;42.696;23.360;2023-04-21T00:31:03;94839.34;;;12.45;66.45
34742;BME280;20968;42.696;23.360;2023-04-21T00:33:29;94849.63;;;12.50;66.66
34742;BME280;20968;42.696;23.360;2023-04-21T00:35:54;94845.09;;;12.47;67.12
34742;BME280;20968;42.696;23.360;2023-04-21T00:38:23;94847.34;;;12.43;66.62
34742;BME280;20968;42.696;23.360;2023-04-21T00:40:48;94842.84;;;12.45;66.74
34742;BME280;20968;42.696;23.360;2023-04-21T00:43:14;94845.59;;;12.40;67.12
34742;BME280;20968;42.696;23.360;2023-04-21T00:45:39;94847.09;;;12.41;65.77
34742;BME280;20968;42.696;23.360;2023-04-21T00:48:05;94843.56;;;12.35;65.35
34742;BME280;20968;42.696;23.360;2023-04-21T00:50:31;94844.56;;;12.38;65.31
34742;BME280;20968;42.696;23.360;2023-04-21T00:52:58;94844.31;;;12.36;65.25
34742;BME280;20968;42.696;23.360;2023-04-21T00:55:25;94835.50;;;12.26;64.64
34742;BME280;20968;42.696;23.360;2023-04-21T00:57:51;94831.75;;;12.24;63.78
34742;BME280;20968;42.696;23.360;2023-04-21T01:00:19;94835.72;;;12.17;63.95
34742;BME280;20968;42.696;23.360;2023-04-21T01:02:44;94829.66;;;12.08;64.02
34742;BME280;20968;42.696;23.360;2023-04-21T01:05:10;94829.44;;;12.11;64.44
34742;BME280;20968;42.696;23.360;2023-04-21T01:07:36;94828.19;;;12.12;64.36
34742;BME280;20968;42.696;23.360;2023-04-21T01:10:02;94825.16;;;12.10;64.61
34742;BME280;20968;42.696;23.360;2023-04-21T01:12:28;94829.69;;;12.13;63.34
34742;BME280;20968;42.696;23.360;2023-04-21T01:14:55;94833.44;;;12.10;63.47
34742;BME280;20968;42.696;23.360;2023-04-21T01:17:20;94826.38;;;12.04;62.70
34742;BME280;20968;42.696;23.360;2023-04-21T01:19:47;94828.91;;;12.02;63.73
34742;BME280;20968;42.696;23.360;2023-04-21T01:22:13;94828.63;;;12.00;63.73
34742;BME280;20968;42.696;23.360;2023-04-21T01:24:43;94831.41;;;12.05;62.84
34742;BME280;20968;42.696;23.360;2023-04-21T01:27:11;94839.16;;;11.96;64.06
34742;BME280;20968;42.696;23.360;2023-04-21T01:29:38;94834.63;;;11.93;63.96
34742;BME280;20968;42.696;23.360;2023-04-21T01:32:07;94838.41;;;11.95;63.38
34742;BME280;20968;42.696;23.360;2023-04-21T01:34:32;94829.84;;;11.88;63.64
34742;BME280;20968;42.696;23.360;2023-04-21T01:36:59;94830.31;;;11.86;64.17
34742;BME280;20968;42.696;23.360;2023-04-21T01:39:24;94828.56;;;11.89;64.44
34742;BME280;20968;42.696;23.360;2023-04-21T01:41:50;94825.03;;;11.83;64.07
34742;BME280;20968;42.696;23.360;2023-04-21T01:44:15;94826.28;;;11.82;64.23
34742;BME280;20968;42.696;23.360;2023-04-21T01:46:44;94818.00;;;11.82;64.68
34742;BME280;20968;42.696;23.360;2023-04-21T01:49:09;94813.72;;;11.81;64.80
34742;BME280;20968;42.696;23.360;2023-04-21T01:51:36;94819.00;;;11.79;64.41
34742;BME280;20968;42.696;23.360;2023-04-21T01:54:03;94809.19;;;11.72;64.14
34742;BME280;20968;42.696;23.360;2023-04-21T01:56:29;94822.03;;;11.86;63.78
34742;BME280;20968;42.696;23.360;2023-04-21T01:58:54;94821.81;;;11.84;64.00
34742;BME280;20968;42.696;23.360;2023-04-21T02:01:22;94816.03;;;11.82;64.26
34742;BME280;20968;42.696;23.360;2023-04-21T02:03:49;94820.53;;;11.85;64.07
34742;BME280;20968;42.696;23.360;2023-04-21T02:06:15;94826.03;;;11.85;63.70
34742;BME280;20968;42.696;23.360;2023-04-21T02:08:43;94820.75;;;11.82;64.46
34742;BME280;20968;42.696;23.360;2023-04-21T02:11:09;94830.59;;;11.88;63.82
34742;BME280;20968;42.696;23.360;2023-04-21T02:13:38;94814.97;;;11.74;64.29
34742;BME280;20968;42.696;23.360;2023-04-21T02:16:05;94814.97;;;11.74;63.72
34742;BME280;20968;42.696;23.360;2023-04-21T02:18:30;94817.50;;;11.78;63.36
34742;BME280;20968;42.696;23.360;2023-04-21T02:20:56;94816.22;;;11.73;63.38
34742;BME280;20968;42.696;23.360;2023-04-21T02:23:22;94809.41;;;11.63;63.69
34742;BME280;20968;42.696;23.360;2023-04-21T02:25:47;94814.66;;;11.62;63.57
34742;BME280;20968;42.696;23.360;2023-04-21T02:28:16;94812.38;;;11.60;63.86
34742;BME280;20968;42.696;23.360;2023-04-21T02:30:42;94810.88;;;11.59;63.24
34742;BME280;20968;42.696;23.360;2023-04-21T02:33:07;94812.63;;;11.57;63.70
34742;BME280;20968;42.696;23.360;2023-04-21T02:35:33;94819.13;;;11.54;64.13
34742;BME280;20968;42.696;23.360;2023-04-21T02:37:58;94803.84;;;11.53;64.12
34742;BME280;20968;42.696;23.360;2023-04-21T02:40:25;94815.63;;;11.59;63.63
34742;BME280;20968;42.696;23.360;2023-04-21T02:42:52;94820.44;;;11.63;64.07
34742;BME280;20968;42.696;23.360;2023-04-21T02:45:19;94824.09;;;11.50;64.38
34742;BME280;20968;42.696;23.360;2023-04-21T02:47:44;94822.91;;;11.56;64.24
34742;BME280;20968;42.696;23.360;2023-04-21T02:50:13;94827.66;;;11.56;64.36
34742;BME280;20968;42.696;23.360;2023-04-21T02:52:39;94818.53;;;11.44;64.64
34742;BME280;20968;42.696;23.360;2023-04-21T02:55:07;94813.78;;;11.45;65.27
34742;BME280;20968;42.696;23.360;2023-04-21T02:57:33;94815.81;;;11.50;65.38
34742;BME280;20968;42.696;23.360;2023-04-21T02:59:58;94820.06;;;11.51;65.04
34742;BME280;20968;42.696;23.360;2023-04-21T03:02:24;94816.63;;;11.56;64.74
34742;BME280;20968;42.696;23.360;2023-04-21T03:04:50;94805.81;;;11.52;64.43
34742;BME280;20968;42.696;23.360;2023-04-21T03:07:15;94818.41;;;11.59;64.01
34742;BME280;20968;42.696;23.360;2023-04-21T03:09:41;94823.19;;;11.63;64.44
34742;BME280;20968;42.696;23.360;2023-04-21T03:12:07;94815.41;;;11.62;64.32
34742;BME280;20968;42.696;23.360;2023-04-21T03:14:34;94822.44;;;11.63;64.88
34742;BME280;20968;42.696;23.360;2023-04-21T03:17:00;94828.69;;;11.63;64.78
34742;BME280;20968;42.696;23.360;2023-04-21T03:19:26;94814.66;;;11.62;64.33
34742;BME280;20968;42.696;23.360;2023-04-21T03:21:53;94822.97;;;11.72;64.69
34742;BME280;20968;42.696;23.360;2023-04-21T03:24:18;94817.94;;;11.65;63.98
34742;BME280;20968;42.696;23.360;2023-04-21T03:26:44;94822.47;;;11.74;64.77
34742;BME280;20968;42.696;23.360;2023-04-21T03:29:10;94834.31;;;11.80;64.73
34742;BME280;20968;42.696;23.360;2023-04-21T03:31:37;94840.38;;;11.89;64.80
34742;BME280;20968;42.696;23.360;2023-04-21T03:34:02;94835.09;;;11.86;64.61
34742;BME280;20968;42.696;23.360;2023-04-21T03:36:28;94832.59;;;11.88;64.67
34742;BME280;20968;42.696;23.360;2023-04-21T03:38:53;94834.88;;;11.95;64.33
34742;BME280;20968;42.696;23.360;2023-04-21T03:41:20;94834.13;;;11.94;63.00
34742;BME280;20968;42.696;23.360;2023-04-21T03:43:45;94836.66;;;12.03;63.12
34742;BME280;20968;42.696;23.360;2023-04-21T03:46:20;94840.94;;;12.04;62.85
34742;BME280;20968;42.696;23.360;2023-04-21T03:48:47;94829.38;;;11.95;62.80
34742;BME280;20968;42.696;23.360;2023-04-21T03:51:17;94836.09;;;11.88;63.69
34742;BME280;20968;42.696;23.360;2023-04-21T03:53:44;94842.13;;;11.87;63.21
34742;BME280;20968;42.696;23.360;2023-04-21T03:56:12;94844.84;;;11.81;63.42
34742;BME280;20968;42.696;23.360;2023-04-21T03:58:44;94839.34;;;11.81;63.24
34742;BME280;20968;42.696;23.360;2023-04-21T04:01:09;94847.84;;;11.78;63.84
34742;BME280;20968;42.696;23.360;2023-04-21T04:03:35;94850.38;;;11.81;63.25
34742;BME280;20968;42.696;23.360;2023-04-21T04:06:00;94854.91;;;11.84;64.06
34742;BME280;20968;42.696;23.360;2023-04-21T04:08:29;94850.88;;;11.85;63.83
34742;BME280;20968;42.696;23.360;2023-04-21T04:10:55;94864.19;;;11.87;63.53
34742;BME280;20968;42.696;23.360;2023-04-21T04:13:23;94862.50;;;12.00;69.56
34742;BME280;20968;42.696;23.360;2023-04-21T04:15:51;94854.19;;;12.64;73.93
34742;BME280;20968;42.696;23.360;2023-04-21T04:18:16;94854.03;;;13.27;71.19
34742;BME280;20968;42.696;23.360;2023-04-21T04:20:42;94862.28;;;13.71;70.11
34742;BME280;20968;42.696;23.360;2023-04-21T04:23:07;94872.25;;;14.18;68.39
34742;BME280;20968;42.696;23.360;2023-04-21T04:25:33;94878.69;;;14.42;66.13
34742;BME280;20968;42.696;23.360;2023-04-21T04:27:58;94865.50;;;14.65;63.34
34742;BME280;20968;42.696;23.360;2023-04-21T04:30:23;94876.47;;;14.86;61.09
34742;BME280;20968;42.696;23.360;2023-04-21T04:32:52;94883.56;;;14.77;58.61
34742;BME280;20968;42.696;23.360;2023-04-21T04:35:18;94893.72;;;14.63;57.39
34742;BME280;20968;42.696;23.360;2023-04-21T04:37:43;94891.75;;;14.53;57.76
34742;BME280;20968;42.696;23.360;2023-04-21T04:40:09;94881.75;;;14.33;57.92
34742;BME280;20968;42.696;23.360;2023-04-21T04:42:38;94897.38;;;14.31;57.62
34742;BME280;20968;42.696;23.360;2023-04-21T04:45:05;94900.69;;;14.24;58.36
34742;BME280;20968;42.696;23.360;2023-04-21T04:47:33;94903.97;;;14.06;58.44
34742;BME280;20968;42.696;23.360;2023-04-21T04:49:59;94902.50;;;13.94;58.40
34742;BME280;20968;42.696;23.360;2023-04-21T04:52:27;94904.00;;;13.84;58.28
34742;BME280;20968;42.696;23.360;2023-04-21T04:54:54;94891.47;;;13.72;58.95
34742;BME280;20968;42.696;23.360;2023-04-21T04:57:20;94897.75;;;13.67;59.02
34742;BME280;20968;42.696;23.360;2023-04-21T04:59:56;94903.28;;;13.67;59.84
34742;BME280;20968;42.696;23.360;2023-04-21T05:02:27;94908.56;;;13.54;59.71
34742;BME280;20968;42.696;23.360;2023-04-21T05:04:53;94893.47;;;13.44;59.91
34742;BME280;20968;42.696;23.360;2023-04-21T05:07:18;94904.53;;;13.44;60.30
34742;BME280;20968;42.696;23.360;2023-04-21T05:09:44;94902.56;;;13.50;60.08
34742;BME280;20968;42.696;23.360;2023-04-21T05:12:09;94900.03;;;13.58;60.30
34742;BME280;20968;42.696;23.360;2023-04-21T05:14:35;94889.97;;;13.55;59.90
34742;BME280;20968;42.696;23.360;2023-04-21T05:17:02;94892.50;;;13.58;60.32
34742;BME280;20968;42.696;23.360;2023-04-21T05:19:27;94903.31;;;13.62;60.65
34742;BME280;20968;42.696;23.360;2023-04-21T05:21:58;94898.50;;;13.62;60.15
34742;BME280;20968;42.696;23.360;2023-04-21T05:24:25;94902.03;;;13.68;60.64
34742;BME280;20968;42.696;23.360;2023-04-21T05:26:52;94892.22;;;13.67;60.72
34742;BME280;20968;42.696;23.360;2023-04-21T05:29:18;94890.72;;;13.66;60.94
34742;BME280;20968;42.696;23.360;2023-04-21T05:31:43;94901.03;;;13.71;59.98
34742;BME280;20968;42.696;23.360;2023-04-21T05:34:10;94896.97;;;13.83;59.77
34742;BME280;20968;42.696;23.360;2023-04-21T05:36:36;94893.69;;;13.90;59.31
34742;BME280;20968;42.696;23.360;2023-04-21T05:39:01;94893.91;;;14.03;59.66
34742;BME280;20968;42.696;23.360;2023-04-21T05:41:28;94904.72;;;14.17;58.36
34742;BME280;20968;42.696;23.360;2023-04-21T05:43:53;94898.44;;;14.17;58.11
34742;BME280;20968;42.696;23.360;2023-04-21T05:46:19;94897.44;;;14.20;58.15
34742;BME280;20968;42.696;23.360;2023-04-21T05:48:44;94893.13;;;14.24;57.93
34742;BME280;20968;42.696;23.360;2023-04-21T05:51:16;94887.09;;;14.26;57.35
34742;BME280;20968;42.696;23.360;2023-04-21T05:53:43;94899.38;;;14.36;56.34
34742;BME280;20968;42.696;23.360;2023-04-21T05:56:12;94889.84;;;14.26;56.87
34742;BME280;20968;42.696;23.360;2023-04-21T05:58:39;94905.19;;;14.32;55.87
34742;BME280;20968;42.696;23.360;2023-04-21T06:01:24;94896.38;;;14.28;56.32
34742;BME280;20968;42.696;23.360;2023-04-21T06:03:50;94889.84;;;14.26;56.81
34742;BME280;20968;42.696;23.360;2023-04-21T06:06:19;94892.38;;;14.29;56.14
34742;BME280;20968;42.696;23.360;2023-04-21T06:08:44;94877.81;;;14.18;56.50
34742;BME280;20968;42.696;23.360;2023-04-21T06:11:10;94886.34;;;14.09;56.91
34742;BME280;20968;42.696;23.360;2023-04-21T06:13:36;94876.81;;;14.15;57.42
34742;BME280;20968;42.696;23.360;2023-04-21T06:16:01;94885.59;;;14.19;57.33
34742;BME280;20968;42.696;23.360;2023-04-21T06:18:28;94880.50;;;14.29;56.95
34742;BME280;20968;42.696;23.360;2023-04-21T06:20:55;94896.38;;;14.34;57.28
34742;BME280;20968;42.696;23.360;2023-04-21T06:23:21;94880.03;;;14.25;57.56
34742;BME280;20968;42.696;23.360;2023-04-21T06:28:52;94890.31;;;14.41;57.25
34742;BME280;20968;42.696;23.360;2023-04-21T06:31:17;94897.53;;;14.55;57.30
34742;BME280;20968;42.696;23.360;2023-04-21T06:33:43;94886.22;;;14.53;56.94
34742;BME280;20968;42.696;23.360;2023-04-21T06:36:11;94879.69;;;14.45;57.02
34742;BME280;20968;42.696;23.360;2023-04-21T06:38:37;94881.97;;;14.46;57.29
34742;BME280;20968;42.696;23.360;2023-04-21T06:41:08;94883.63;;;14.66;57.25
34742;BME280;20968;42.696;23.360;2023-04-21T06:43:34;94873.03;;;14.70;56.76
34742;BME280;20968;42.696;23.360;2023-04-21T06:46:01;94884.66;;;14.63;57.20
34742;BME280;20968;42.696;23.360;2023-04-21T06:48:27;94888.72;;;14.51;58.19
34742;BME280;20968;42.696;23.360;2023-04-21T06:50:54;94887.72;;;14.54;57.90
34742;BME280;20968;42.696;23.360;2023-04-21T06:53:20;94880.19;;;14.49;57.61
34742;BME280;20968;42.696;23.360;2023-04-21T06:55:47;94887.69;;;14.65;57.24
34742;BME280;20968;42.696;23.360;2023-04-21T06:58:13;94874.28;;;14.74;57.58
34742;BME280;20968;42.696;23.360;2023-04-21T07:00:38;94880.88;;;15.06;57.18
34742;BME280;20968;42.696;23.360;2023-04-21T07:03:04;94877.28;;;15.16;56.25
34742;BME280;20968;42.696;23.360;2023-04-21T07:05:30;94873.97;;;15.18;56.40
34742;BME280;20968;42.696;23.360;2023-04-21T07:07:56;94883.78;;;15.30;56.38
34742;BME280;20968;42.696;23.360;2023-04-21T07:10:27;94872.19;;;15.20;56.38
34742;BME280;20968;42.696;23.360;2023-04-21T07:12:53;94874.06;;;15.47;56.66
34742;BME280;20968;42.696;23.360;2023-04-21T07:15:19;94873.94;;;15.58;55.45
34742;BME280;20968;42.696;23.360;2023-04-21T07:17:45;94884.63;;;15.78;54.96
34742;BME280;20968;42.696;23.360;2023-04-21T07:20:14;94881.22;;;15.90;55.31
34742;BME280;20968;42.696;23.360;2023-04-21T07:22:39;94876.19;;;15.89;53.95
34742;BME280;20968;42.696;23.360;2023-04-21T07:25:05;94870.50;;;15.76;53.77
34742;BME280;20968;42.696;23.360;2023-04-21T07:27:32;94878.03;;;15.81;54.06
34742;BME280;20968;42.696;23.360;2023-04-21T07:29:58;94876.09;;;15.70;54.44
34742;BME280;20968;42.696;23.360;2023-04-21T07:32:23;94883.22;;;15.66;54.87
34742;BME280;20968;42.696;23.360;2023-04-21T07:34:52;94877.81;;;15.79;54.55
34742;BME280;20968;42.696;23.360;2023-04-21T07:37:18;94878.44;;;15.90;54.39
34742;BME280;20968;42.696;23.360;2023-04-21T07:39:48;94875.50;;;16.07;53.77
34742;BME280;20968;42.696;23.360;2023-04-21T07:42:14;94868.66;;;16.08;53.92
34742;BME280;20968;42.696;23.360;2023-04-21T07:45:10;94877.63;;;16.19;52.95
34742;BME280;20968;42.696;23.360;2023-04-21T07:47:46;94879.03;;;16.31;52.88
34742;BME280;20968;42.696;23.360;2023-04-21T07:50:24;94892.53;;;16.45;52.66
34742;BME280;20968;42.696;23.360;2023-04-21T07:53:10;94874.25;;;16.32;52.25
34742;BME280;20968;42.696;23.360;2023-04-21T07:55:38;94863.34;;;16.34;52.37
34742;BME280;20968;42.696;23.360;2023-04-21T07:58:04;94870.94;;;16.33;52.36
34742;BME280;20968;42.696;23.360;2023-04-21T08:00:39;94871.19;;;16.53;52.48
34742;BME280;20968;42.696;23.360;2023-04-21T08:03:26;94881.72;;;16.60;51.41
34742;BME280;20968;42.696;23.360;2023-04-21T08:05:52;94886.13;;;16.50;52.69
34742;BME280;20968;42.696;23.360;2023-04-21T08:08:17;94873.06;;;16.45;52.50
34742;BME280;20968;42.696;23.360;2023-04-21T08:10:46;94889.59;;;16.56;51.78
34742;BME280;20968;42.696;23.360;2023-04-21T08:13:15;94883.31;;;16.74;51.45
34742;BME280;20968;42.696;23.360;2023-04-21T08:15:45;94874.59;;;16.83;51.14
34742;BME280;20968;42.696;23.360;2023-04-21T08:18:11;94875.56;;;16.86;51.18
34742;BME280;20968;42.696;23.360;2023-04-21T08:20:37;94876.84;;;16.85;51.62
34742;BME280;20968;42.696;23.360;2023-04-21T08:23:03;94864.31;;;16.97;51.42
34742;BME280;20968;42.696;23.360;2023-04-21T08:25:30;94880.75;;;17.13;50.10
34742;BME280;20968;42.696;23.360;2023-04-21T08:28:15;94874.00;;;16.90;49.72
34742;BME280;20968;42.696;23.360;2023-04-21T08:30:41;94870.97;;;16.88;50.40
34742;BME280;20968;42.696;23.360;2023-04-21T08:33:11;94876.09;;;17.03;49.74
34742;BME280;20968;42.696;23.360;2023-04-21T08:35:43;94867.28;;;16.99;49.71
34742;BME280;20968;42.696;23.360;2023-04-21T08:38:10;94878.94;;;17.34;49.85
34742;BME280;20968;42.696;23.360;2023-04-21T08:40:36;94866.81;;;17.50;49.59
34742;BME280;20968;42.696;23.360;2023-04-21T08:43:07;94869.22;;;17.85;49.19
34742;BME280;20968;42.696;23.360;2023-04-21T08:45:34;94859.28;;;17.89;47.82
34742;BME280;20968;42.696;23.360;2023-04-21T08:48:00;94855.31;;;17.85;47.72
34742;BME280;20968;42.696;23.360;2023-04-21T08:50:47;94866.16;;;17.88;48.24
34742;BME280;20968;42.696;23.360;2023-04-21T08:53:39;94863.16;;;18.12;47.65
34742;BME280;20968;42.696;23.360;2023-04-21T08:56:05;94858.03;;;18.03;47.71
34742;BME280;20968;42.696;23.360;2023-04-21T08:58:33;94865.00;;;18.09;47.29
34742;BME280;20968;42.696;23.360;2023-04-21T09:01:04;94847.75;;;18.11;47.09
34742;BME280;20968;42.696;23.360;2023-04-21T09:03:37;94852.81;;;18.25;47.95
34742;BME280;20968;42.696;23.360;2023-04-21T09:06:04;94842.22;;;18.24;47.33
34742;BME280;20968;42.696;23.360;2023-04-21T09:08:37;94836.31;;;18.27;45.95
34742;BME280;20968;42.696;23.360;2023-04-21T09:11:02;94855.59;;;18.25;45.98
34742;BME280;20968;42.696;23.360;2023-04-21T09:16:01;94850.59;;;17.80;47.46
34742;BME280;20968;42.696;23.360;2023-04-21T09:18:29;94833.16;;;17.48;48.15
34742;BME280;20968;42.696;23.360;2023-04-21T09:23:53;94838.56;;;17.27;48.04
34742;BME280;20968;42.696;23.360;2023-04-21T09:26:20;94830.47;;;17.24;47.83
34742;BME280;20968;42.696;23.360;2023-04-21T09:28:50;94831.00;;;17.41;48.08
34742;BME280;20968;42.696;23.360;2023-04-21T09:31:20;94814.25;;;17.28;49.05
34742;BME280;20968;42.696;23.360;2023-04-21T09:33:57;94831.97;;;17.25;47.05
34742;BME280;20968;42.696;23.360;2023-04-21T09:36:37;94832.91;;;17.33;47.00
34742;BME280;20968;42.696;23.360;2023-04-21T09:39:29;94831.44;;;17.45;45.92
34742;BME280;20968;42.696;23.360;2023-04-21T09:41:58;94832.09;;;17.51;44.92
34742;BME280;20968;42.696;23.360;2023-04-21T09:44:27;94806.50;;;17.52;45.21
34742;BME280;20968;42.696;23.360;2023-04-21T09:47:09;94813.75;;;17.87;45.73
34742;BME280;20968;42.696;23.360;2023-04-21T09:50:05;94817.47;;;17.89;45.54
34742;BME280;20968;42.696;23.360;2023-04-21T09:52:37;94810.78;;;18.23;44.67
34742;BME280;20968;42.696;23.360;2023-04-21T09:55:03;94807.09;;;18.67;44.78
34742;BME280;20968;42.696;23.360;2023-04-21T09:57:34;94799.06;;;18.51;44.82
34742;BME280;20968;42.696;23.360;2023-04-21T10:00:06;94793.94;;;18.29;46.00
34742;BME280;20968;42.696;23.360;2023-04-21T10:02:37;94809.28;;;18.35;45.65
34742;BME280;20968;42.696;23.360;2023-04-21T10:05:24;94805.63;;;18.14;45.75
34742;BME280;20968;42.696;23.360;2023-04-21T10:08:07;94790.28;;;17.95;45.21
34742;BME280;20968;42.696;23.360;2023-04-21T10:10:35;94802.63;;;17.99;45.95
34742;BME280;20968;42.696;23.360;2023-04-21T10:13:11;94818.72;;;18.32;44.59
34742;BME280;20968;42.696;23.360;2023-04-21T10:15:40;94798.31;;;18.50;44.74
34742;BME280;20968;42.696;23.360;2023-04-21T10:18:22;94812.34;;;18.19;45.96
34742;BME280;20968;42.696;23.360;2023-04-21T10:21:06;94807.31;;;18.17;47.69
34742;BME280;20968;42.696;23.360;2023-04-21T10:26:12;94796.16;;;18.56;45.94
34742;BME280;20968;42.696;23.360;2023-04-21T10:29:27;94805.19;;;19.29;44.04
34742;BME280;20968;42.696;23.360;2023-04-21T10:31:55;94789.09;;;19.62;43.48
34742;BME280;20968;42.696;23.360;2023-04-21T10:34:28;94794.84;;;20.05;42.64
34742;BME280;20968;42.696;23.360;2023-04-21T10:39:41;94787.31;;;20.56;42.14
34742;BME280;20968;42.696;23.360;2023-04-21T10:44:43;94793.63;;;20.49;41.65
34742;BME280;20968;42.696;23.360;2023-04-21T10:47:26;94773.16;;;20.26;43.12
34742;BME280;20968;42.696;23.360;2023-04-21T10:56:31;94793.97;;;19.90;41.89
34742;BME280;20968;42.696;23.360;2023-04-21T10:58:58;94780.50;;;20.09;39.16
34742;BME280;20968;42.696;23.360;2023-04-21T11:01:25;94776.25;;;20.08;40.71
34742;BME280;20968;42.696;23.360;2023-04-21T11:04:00;94780.44;;;20.29;40.51
34742;BME280;20968;42.696;23.360;2023-04-21T11:06:28;94776.06;;;20.13;38.55
34742;BME280;20968;42.696;23.360;2023-04-21T11:08:59;94793.28;;;20.25;41.79
34742;BME280;20968;42.696;23.360;2023-04-21T11:11:56;94779.50;;;20.27;43.11
34742;BME280;20968;42.696;23.360;2023-04-21T11:20:29;94771.47;;;20.58;43.87
34742;BME280;20968;42.696;23.360;2023-04-21T11:23:39;94775.13;;;20.89;44.67
34742;BME280;20968;42.696;23.360;2023-04-21T11:27:07;94773.34;;;21.06;42.79
34742;BME280;20968;42.696;23.360;2023-04-21T11:29:48;94775.84;;;20.82;42.46
34742;BME280;20968;42.696;23.360;2023-04-21T11:32:59;94789.34;;;20.91;41.66
34742;BME280;20968;42.696;23.360;2023-04-21T11:42:06;94785.16;;;20.34;43.89
34742;BME280;20968;42.696;23.360;2023-04-21T11:44:59;94794.06;;;20.33;44.65
34742;BME280;20968;42.696;23.360;2023-04-21T11:47:36;94792.41;;;20.30;44.34
34742;BME280;20968;42.696;23.360;2023-04-21T11:50:29;94775.63;;;20.30;43.59
34742;BME280;20968;42.696;23.360;2023-04-21T11:53:25;94775.84;;;20.39;42.91
34742;BME280;20968;42.696;23.360;2023-04-21T11:56:05;94782.72;;;20.38;42.22
34742;BME280;20968;42.696;23.360;2023-04-21T11:58:59;94769.22;;;20.22;41.29
34742;BME280;20968;42.696;23.360;2023-04-21T12:01:45;94777.63;;;20.22;41.10
34742;BME280;20968;42.696;23.360;2023-04-21T12:07:54;94788.03;;;20.84;39.45
34742;BME280;20968;42.696;23.360;2023-04-21T12:21:30;94791.41;;;20.90;38.14
34742;BME280;20968;42.696;23.360;2023-04-21T12:24:15;94791.53;;;20.42;38.90
34742;BME280;20968;42.696;23.360;2023-04-21T12:30:20;94781.63;;;19.85;40.47
34742;BME280;20968;42.696;23.360;2023-04-21T12:32:49;94785.94;;;19.86;40.38
34742;BME280;20968;42.696;23.360;2023-04-21T12:35:21;94786.13;;;19.88;41.06
34742;BME280;20968;42.696;23.360;2023-04-21T12:37:48;94772.34;;;19.90;41.29
34742;BME280;20968;42.696;23.360;2023-04-21T12:40:18;94783.81;;;20.00;41.29
34742;BME280;20968;42.696;23.360;2023-04-21T12:42:56;94775.13;;;19.90;39.97
34742;BME280;20968;42.696;23.360;2023-04-21T12:45:49;94776.53;;;19.97;40.21
34742;BME280;20968;42.696;23.360;2023-04-21T12:48:33;94768.88;;;19.97;41.75
34742;BME280;20968;42.696;23.360;2023-04-21T12:51:36;94789.31;;;20.48;39.99
34742;BME280;20968;42.696;23.360;2023-04-21T12:54:47;94782.28;;;20.62;40.02
34742;BME280;20968;42.696;23.360;2023-04-21T12:57:33;94785.22;;;20.49;39.23
34742;BME280;20968;42.696;23.360;2023-04-21T13:00:00;94780.44;;;20.29;39.00
34742;BME280;20968;42.696;23.360;2023-04-21T13:02:31;94765.50;;;20.19;39.15
34742;BME280;20968;42.696;23.360;2023-04-21T13:05:25;94771.97;;;20.14;39.97
34742;BME280;20968;42.696;23.360;2023-04-21T13:08:40;94751.31;;;19.89;40.46
34742;BME280;20968;42.696;23.360;2023-04-21T13:14:51;94763.84;;;19.75;40.69
34742;BME280;20968;42.696;23.360;2023-04-21T13:20:28;94752.94;;;19.85;40.38
34742;BME280;20968;42.696;23.360;2023-04-21T13:23:15;94759.28;;;19.85;40.17
34742;BME280;20968;42.696;23.360;2023-04-21T13:25:49;94758.50;;;19.57;39.83
34742;BME280;20968;42.696;23.360;2023-04-21T13:28:31;94757.72;;;19.29;40.67
34742;BME280;20968;42.696;23.360;2023-04-21T13:31:12;94762.00;;;19.09;40.01
34742;BME280;20968;42.696;23.360;2023-04-21T13:33:45;94762.56;;;18.95;39.92
34742;BME280;20968;42.696;23.360;2023-04-21T13:36:27;94757.78;;;18.82;39.52
34742;BME280;20968;42.696;23.360;2023-04-21T13:42:38;94742.38;;;18.69;40.80
34742;BME280;20968;42.696;23.360;2023-04-21T13:45:24;94748.44;;;18.80;41.08
34742;BME280;20968;42.696;23.360;2023-04-21T13:48:34;94743.19;;;18.76;41.67
34742;BME280;20968;42.696;23.360;2023-04-21T13:51:27;94732.63;;;18.62;41.28
34742;BME280;20968;42.696;23.360;2023-04-21T14:03:55;94737.41;;;18.74;43.69
34742;BME280;20968;42.696;23.360;2023-04-21T14:06:29;94729.66;;;18.80;42.53
34742;BME280;20968;42.696;23.360;2023-04-21T14:09:19;94726.06;;;18.93;42.60
34742;BME280;20968;42.696;23.360;2023-04-21T14:15:10;94724.00;;;19.27;41.49
34742;BME280;20968;42.696;23.360;2023-04-21T14:21:16;94715.16;;;19.63;41.54
34742;BME280;20968;42.696;23.360;2023-04-21T14:23:51;94732.47;;;19.62;41.10
34742;BME280;20968;42.696;23.360;2023-04-21T14:27:04;94724.34;;;19.99;41.03
34742;BME280;20968;42.696;23.360;2023-04-21T14:29:52;94708.47;;;20.30;40.80
34742;BME280;20968;42.696;23.360;2023-04-21T14:32:24;94721.53;;;20.77;40.18